sensor_id;sensor_type;location;lat;lon;timestamp;temperature;humidity
30150;DHT22;16962;48.646;9.026;2023-04-24T00:00:23;9.20;99.90
30150;DHT22;16962;48.646;9.026;2023-04-24T00:03:12;9.20;99.90
30150;DHT22;16962;48.646;9.026;2023-04-24T00:06:26;9.20;94.00
30150;DHT22;16962;48.646;9.026;2023-04-24T00:09:43;9.20;99.30
30150;DHT22;16962;48.646;9.026;2023-04-24T00:13:36;9.20;99.90
30150;DHT22;16962;48.646;9.026;2023-04-24T00:20:45;9.20;99.90
30150;DHT22;16962;48.646;9.026;2023-04-24T00:23:49;9.30;99.90
30150;DHT22;16962;48.646;9.026;2023-04-24T00:26:39;9.20;20.70
30150;DHT22;16962;48.646;9.026;2023-04-24T00:32:59;9.30;1.00
30150;DHT22;16962;48.646;9.026;2023-04-24T00:35:54;9.30;99.90
30150;DHT22;16962;48.646;9.026;2023-04-24T00:42:58;9.30;99.90
30150;DHT22;16962;48.646;9.026;2023-04-24T00:45:57;9.50;5.40
30150;DHT22;16962;48.646;9.026;2023-04-24T00:49:24;9.70;99.90
30150;DHT22;16962;48.646;9.026;2023-04-24T00:56:47;9.70;1.00
30150;DHT22;16962;48.646;9.026;2023-04-24T00:59:54;9.70;99.90
30150;DHT22;16962;48.646;9.026;2023-04-24T01:03:19;9.80;99.90
30150;DHT22;16962;48.646;9.026;2023-04-24T01:06:19;9.80;99.90
30150;DHT22;16962;48.646;9.026;2023-04-24T01:10:01;9.80;99.90
30150;DHT22;16962;48.646;9.026;2023-04-24T01:17:31;9.70;99.90
30150;DHT22;16962;48.646;9.026;2023-04-24T01:33:47;9.60;99.90
30150;DHT22;16962;48.646;9.026;2023-04-24T01:53:17;9.30;27.20
30150;DHT22;16962;48.646;9.026;2023-04-24T01:56:36;9.20;99.90
30150;DHT22;16962;48.646;9.026;2023-04-24T02:24:58;8.80;99.90
30150;DHT22;16962;48.646;9.026;2023-04-24T02:28:20;8.80;1.00
30150;DHT22;16962;48.646;9.026;2023-04-24T02:57:24;8.80;99.90
30150;DHT22;16962;48.646;9.026;2023-04-24T03:08:43;8.80;99.90
30150;DHT22;16962;48.646;9.026;2023-04-24T03:11:52;8.80;99.90
30150;DHT22;16962;48.646;9.026;2023-04-24T03:22:52;8.70;99.90
30150;DHT22;16962;48.646;9.026;2023-04-24T03:25:39;8.70;99.90
30150;DHT22;16962;48.646;9.026;2023-04-24T03:44:31;8.60;99.90
30150;DHT22;16962;48.646;9.026;2023-04-24T03:57:26;8.40;99.90
30150;DHT22;16962;48.646;9.026;2023-04-24T04:04:22;8.30;99.90
30150;DHT22;16962;48.646;9.026;2023-04-24T04:11:42;8.30;99.90
30150;DHT22;16962;48.646;9.026;2023-04-24T04:14:36;8.40;99.90
30150;DHT22;16962;48.646;9.026;2023-04-24T04:17:42;8.50;99.90
30150;DHT22;16962;48.646;9.026;2023-04-24T04:29:10;8.60;99.90
30150;DHT22;16962;48.646;9.026;2023-04-24T04:32:04;8.70;99.90
30150;DHT22;16962;48.646;9.026;2023-04-24T04:34:52;8.70;99.90
30150;DHT22;16962;48.646;9.026;2023-04-24T04:38:10;8.70;99.90
30150;DHT22;16962;48.646;9.026;2023-04-24T04:41:00;8.70;99.90
30150;DHT22;16962;48.646;9.026;2023-04-24T04:43:50;8.50;99.90
30150;DHT22;16962;48.646;9.026;2023-04-24T04:46:37;8.20;99.90
30150;DHT22;16962;48.646;9.026;2023-04-24T04:49:25;8.00;99.90
30150;DHT22;16962;48.646;9.026;2023-04-24T04:52:23;7.80;99.90
30150;DHT22;16962;48.646;9.026;2023-04-24T04:55:16;7.60;99.90
30150;DHT22;16962;48.646;9.026;2023-04-24T04:58:06;7.60;99.90
30150;DHT22;16962;48.646;9.026;2023-04-24T05:00:53;7.50;99.90
30150;DHT22;16962;48.646;9.026;2023-04-24T05:03:41;7.50;99.90
30150;DHT22;16962;48.646;9.026;2023-04-24T05:10:47;7.40;99.90
30150;DHT22;16962;48.646;9.026;2023-04-24T05:56:55;7.90;99.90
30150;DHT22;16962;48.646;9.026;2023-04-24T06:03:29;8.00;99.90
30150;DHT22;16962;48.646;9.026;2023-04-24T06:06:52;8.00;31.20
30150;DHT22;16962;48.646;9.026;2023-04-24T06:18:32;8.30;1.00
30150;DHT22;16962;48.646;9.026;2023-04-24T06:21:24;8.50;1.00
30150;DHT22;16962;48.646;9.026;2023-04-24T06:25:08;8.90;99.90
30150;DHT22;16962;48.646;9.026;2023-04-24T06:28:43;9.40;99.90
30150;DHT22;16962;48.646;9.026;2023-04-24T06:35:34;9.50;99.90
30150;DHT22;16962;48.646;9.026;2023-04-24T06:39:12;9.60;1.00
30150;DHT22;16962;48.646;9.026;2023-04-24T06:46:13;10.20;99.90
30150;DHT22;16962;48.646;9.026;2023-04-24T06:49:32;10.50;1.00
30150;DHT22;16962;48.646;9.026;2023-04-24T06:52:33;10.50;99.90
30150;DHT22;16962;48.646;9.026;2023-04-24T06:59:32;10.60;99.90
30150;DHT22;16962;48.646;9.026;2023-04-24T07:02:32;10.40;99.90
30150;DHT22;16962;48.646;9.026;2023-04-24T07:06:13;10.30;1.00
30150;DHT22;16962;48.646;9.026;2023-04-24T07:13:56;9.80;1.00
30150;DHT22;16962;48.646;9.026;2023-04-24T07:37:44;10.10;99.90
30150;DHT22;16962;48.646;9.026;2023-04-24T07:45:19;10.60;99.90
30150;DHT22;16962;48.646;9.026;2023-04-24T08:04:59;10.60;16.40
30150;DHT22;16962;48.646;9.026;2023-04-24T08:07:53;10.70;11.80
30150;DHT22;16962;48.646;9.026;2023-04-24T08:10:59;10.90;1.00
30150;DHT22;16962;48.646;9.026;2023-04-24T08:13:47;10.60;1.00
30150;DHT22;16962;48.646;9.026;2023-04-24T08:16:35;10.20;1.00
30150;DHT22;16962;48.646;9.026;2023-04-24T08:19:25;10.00;1.00
30150;DHT22;16962;48.646;9.026;2023-04-24T08:22:16;10.10;1.00
30150;DHT22;16962;48.646;9.026;2023-04-24T08:25:05;10.30;1.00
30150;DHT22;16962;48.646;9.026;2023-04-24T08:27:57;10.70;1.00
30150;DHT22;16962;48.646;9.026;2023-04-24T08:30:49;11.50;1.00
30150;DHT22;16962;48.646;9.026;2023-04-24T08:33:48;11.70;1.00
30150;DHT22;16962;48.646;9.026;2023-04-24T08:36:40;11.90;99.90
30150;DHT22;16962;48.646;9.026;2023-04-24T08:39:33;12.20;99.90
30150;DHT22;16962;48.646;9.026;2023-04-24T08:42:27;12.30;99.90
30150;DHT22;16962;48.646;9.026;2023-04-24T08:45:16;12.30;99.90
30150;DHT22;16962;48.646;9.026;2023-04-24T08:48:06;12.10;99.90
30150;DHT22;16962;48.646;9.026;2023-04-24T08:51:11;11.70;99.90
30150;DHT22;16962;48.646;9.026;2023-04-24T08:54:03;11.40;99.90
30150;DHT22;16962;48.646;9.026;2023-04-24T08:56:57;11.10;99.90
30150;DHT22;16962;48.646;9.026;2023-04-24T08:59:51;11.20;99.90
30150;DHT22;16962;48.646;9.026;2023-04-24T09:02:49;11.80;99.90
30150;DHT22;16962;48.646;9.026;2023-04-24T09:05:38;12.10;99.90
30150;DHT22;16962;48.646;9.026;2023-04-24T09:08:28;12.50;99.90
30150;DHT22;16962;48.646;9.026;2023-04-24T09:11:21;12.90;99.90
30150;DHT22;16962;48.646;9.026;2023-04-24T09:14:10;13.30;99.90
30150;DHT22;16962;48.646;9.026;2023-04-24T09:16:59;13.90;99.90
30150;DHT22;16962;48.646;9.026;2023-04-24T09:19:50;13.70;99.90
30150;DHT22;16962;48.646;9.026;2023-04-24T09:22:38;13.30;99.90
30150;DHT22;16962;48.646;9.026;2023-04-24T09:25:41;13.40;99.90
30150;DHT22;16962;48.646;9.026;2023-04-24T09:28:34;13.70;99.90
30150;DHT22;16962;48.646;9.026;2023-04-24T09:31:27;14.30;99.90
30150;DHT22;16962;48.646;9.026;2023-04-24T09:34:24;14.90;99.90
30150;DHT22;16962;48.646;9.026;2023-04-24T09:41:10;15.00;99.90
30150;DHT22;16962;48.646;9.026;2023-04-24T09:44:18;15.40;99.90
30150;DHT22;16962;48.646;9.026;2023-04-24T09:47:11;15.90;95.60
30150;DHT22;16962;48.646;9.026;2023-04-24T09:50:57;15.30;78.10
30150;DHT22;16962;48.646;9.026;2023-04-24T09:53:59;14.70;79.00
30150;DHT22;16962;48.646;9.026;2023-04-24T09:57:02;13.60;63.00
30150;DHT22;16962;48.646;9.026;2023-04-24T09:59:53;12.80;54.90
30150;DHT22;16962;48.646;9.026;2023-04-24T10:03:00;12.50;52.80
30150;DHT22;16962;48.646;9.026;2023-04-24T10:06:03;12.90;57.20
30150;DHT22;16962;48.646;9.026;2023-04-24T10:08:56;14.40;54.40
30150;DHT22;16962;48.646;9.026;2023-04-24T10:11:57;15.10;49.80
30150;DHT22;16962;48.646;9.026;2023-04-24T10:15:19;16.20;47.60
30150;DHT22;16962;48.646;9.026;2023-04-24T10:18:13;16.90;40.80
30150;DHT22;16962;48.646;9.026;2023-04-24T10:21:02;15.70;27.70
30150;DHT22;16962;48.646;9.026;2023-04-24T10:24:13;14.30;24.10
30150;DHT22;16962;48.646;9.026;2023-04-24T10:27:32;13.00;26.60
30150;DHT22;16962;48.646;9.026;2023-04-24T10:30:20;12.10;38.20
30150;DHT22;16962;48.646;9.026;2023-04-24T10:33:10;12.00;41.50
30150;DHT22;16962;48.646;9.026;2023-04-24T10:36:12;11.90;46.80
30150;DHT22;16962;48.646;9.026;2023-04-24T10:39:32;11.60;55.60
30150;DHT22;16962;48.646;9.026;2023-04-24T10:43:04;11.80;62.20
30150;DHT22;16962;48.646;9.026;2023-04-24T10:46:04;11.80;60.50
30150;DHT22;16962;48.646;9.026;2023-04-24T10:49:06;11.40;65.70
30150;DHT22;16962;48.646;9.026;2023-04-24T10:52:11;11.10;74.40
30150;DHT22;16962;48.646;9.026;2023-04-24T10:55:18;11.00;88.80
30150;DHT22;16962;48.646;9.026;2023-04-24T11:02:05;11.50;91.50
30150;DHT22;16962;48.646;9.026;2023-04-24T11:05:05;12.10;91.00
30150;DHT22;16962;48.646;9.026;2023-04-24T11:08:18;13.30;89.60
30150;DHT22;16962;48.646;9.026;2023-04-24T11:11:18;13.50;64.20
30150;DHT22;16962;48.646;9.026;2023-04-24T11:14:17;14.10;63.80
30150;DHT22;16962;48.646;9.026;2023-04-24T11:20:25;14.00;49.40
30150;DHT22;16962;48.646;9.026;2023-04-24T11:23:21;13.80;47.50
30150;DHT22;16962;48.646;9.026;2023-04-24T11:31:34;12.60;46.00
30150;DHT22;16962;48.646;9.026;2023-04-24T11:34:25;12.10;50.40
30150;DHT22;16962;48.646;9.026;2023-04-24T11:37:37;11.60;54.20
30150;DHT22;16962;48.646;9.026;2023-04-24T11:53:45;12.10;53.90
30150;DHT22;16962;48.646;9.026;2023-04-24T12:13:09;11.30;66.50
30150;DHT22;16962;48.646;9.026;2023-04-24T12:16:49;10.80;71.40
30150;DHT22;16962;48.646;9.026;2023-04-24T12:20:12;10.70;82.00
30150;DHT22;16962;48.646;9.026;2023-04-24T12:23:42;10.80;92.40
30150;DHT22;16962;48.646;9.026;2023-04-24T12:27:33;10.80;94.50
30150;DHT22;16962;48.646;9.026;2023-04-24T12:30:30;10.70;94.00
30150;DHT22;16962;48.646;9.026;2023-04-24T12:33:47;10.90;99.90
30150;DHT22;16962;48.646;9.026;2023-04-24T12:37:10;11.20;99.90
30150;DHT22;16962;48.646;9.026;2023-04-24T12:40:42;11.50;99.90
30150;DHT22;16962;48.646;9.026;2023-04-24T12:43:53;11.50;99.90
30150;DHT22;16962;48.646;9.026;2023-04-24T12:47:54;11.60;99.90
30150;DHT22;16962;48.646;9.026;2023-04-24T12:50:45;12.00;99.90
30150;DHT22;16962;48.646;9.026;2023-04-24T12:53:49;13.00;99.90
30150;DHT22;16962;48.646;9.026;2023-04-24T12:56:43;12.80;99.90
30150;DHT22;16962;48.646;9.026;2023-04-24T13:00:01;12.20;90.90
30150;DHT22;16962;48.646;9.026;2023-04-24T13:02:49;11.40;93.20
30150;DHT22;16962;48.646;9.026;2023-04-24T13:06:02;11.10;98.60
30150;DHT22;16962;48.646;9.026;2023-04-24T13:09:05;11.10;99.90
30150;DHT22;16962;48.646;9.026;2023-04-24T13:12:16;10.90;99.90
30150;DHT22;16962;48.646;9.026;2023-04-24T13:15:21;10.80;99.90
30150;DHT22;16962;48.646;9.026;2023-04-24T13:22:37;10.50;99.90
30150;DHT22;16962;48.646;9.026;2023-04-24T13:25:54;10.50;99.90
30150;DHT22;16962;48.646;9.026;2023-04-24T13:37:06;11.10;99.90
30150;DHT22;16962;48.646;9.026;2023-04-24T13:44:14;10.80;99.90
30150;DHT22;16962;48.646;9.026;2023-04-24T13:56:40;10.50;99.90
30150;DHT22;16962;48.646;9.026;2023-04-24T14:07:54;10.50;99.90
30150;DHT22;16962;48.646;9.026;2023-04-24T14:10:47;10.40;99.90
30150;DHT22;16962;48.646;9.026;2023-04-24T14:13:57;10.40;99.90
30150;DHT22;16962;48.646;9.026;2023-04-24T14:17:21;10.30;99.90
30150;DHT22;16962;48.646;9.026;2023-04-24T14:20:29;10.30;99.90
30150;DHT22;16962;48.646;9.026;2023-04-24T14:23:21;10.40;99.90
30150;DHT22;16962;48.646;9.026;2023-04-24T14:29:59;11.00;99.90
30150;DHT22;16962;48.646;9.026;2023-04-24T14:37:05;11.70;99.90
30150;DHT22;16962;48.646;9.026;2023-04-24T14:41:12;11.80;91.30
30150;DHT22;16962;48.646;9.026;2023-04-24T14:44:21;11.80;79.80
30150;DHT22;16962;48.646;9.026;2023-04-24T14:47:51;11.90;75.40
30150;DHT22;16962;48.646;9.026;2023-04-24T14:50:41;11.80;72.20
30150;DHT22;16962;48.646;9.026;2023-04-24T14:53:52;11.90;58.20
30150;DHT22;16962;48.646;9.026;2023-04-24T14:57:09;11.60;63.20
30150;DHT22;16962;48.646;9.026;2023-04-24T14:59:57;11.20;70.80
30150;DHT22;16962;48.646;9.026;2023-04-24T15:02:49;11.30;69.60
30150;DHT22;16962;48.646;9.026;2023-04-24T15:05:45;11.20;72.40
30150;DHT22;16962;48.646;9.026;2023-04-24T15:08:39;11.40;78.00
30150;DHT22;16962;48.646;9.026;2023-04-24T15:11:33;12.10;74.20
30150;DHT22;16962;48.646;9.026;2023-04-24T15:14:45;12.20;57.20
30150;DHT22;16962;48.646;9.026;2023-04-24T15:17:40;11.90;55.10
30150;DHT22;16962;48.646;9.026;2023-04-24T15:31:13;10.90;83.40
30150;DHT22;16962;48.646;9.026;2023-04-24T15:34:50;10.90;82.30
30150;DHT22;16962;48.646;9.026;2023-04-24T15:41:40;10.90;83.30
30150;DHT22;16962;48.646;9.026;2023-04-24T16:02:31;11.20;96.20
30150;DHT22;16962;48.646;9.026;2023-04-24T16:06:32;11.90;85.80
30150;DHT22;16962;48.646;9.026;2023-04-24T16:09:38;11.70;75.50
30150;DHT22;16962;48.646;9.026;2023-04-24T16:17:03;11.40;86.50
30150;DHT22;16962;48.646;9.026;2023-04-24T16:20:00;11.30;78.50
30150;DHT22;16962;48.646;9.026;2023-04-24T16:22:59;11.20;75.90
30150;DHT22;16962;48.646;9.026;2023-04-24T16:25:49;11.20;81.40
30150;DHT22;16962;48.646;9.026;2023-04-24T16:28:39;10.90;70.20
30150;DHT22;16962;48.646;9.026;2023-04-24T16:31:44;10.90;75.00
30150;DHT22;16962;48.646;9.026;2023-04-24T16:34:34;10.90;70.80
30150;DHT22;16962;48.646;9.026;2023-04-24T16:37:25;10.80;67.40
30150;DHT22;16962;48.646;9.026;2023-04-24T16:40:20;10.70;74.90
30150;DHT22;16962;48.646;9.026;2023-04-24T16:43:18;10.50;75.10
30150;DHT22;16962;48.646;9.026;2023-04-24T16:46:13;10.30;79.20
30150;DHT22;16962;48.646;9.026;2023-04-24T16:49:04;10.30;85.40
30150;DHT22;16962;48.646;9.026;2023-04-24T16:51:58;10.30;91.90
30150;DHT22;16962;48.646;9.026;2023-04-24T16:54:55;10.40;91.70
30150;DHT22;16962;48.646;9.026;2023-04-24T16:57:48;10.50;91.50
30150;DHT22;16962;48.646;9.026;2023-04-24T17:00:39;10.60;95.50
30150;DHT22;16962;48.646;9.026;2023-04-24T17:03:29;10.60;96.20
30150;DHT22;16962;48.646;9.026;2023-04-24T17:06:19;10.70;97.30
30150;DHT22;16962;48.646;9.026;2023-04-24T17:09:12;10.80;96.60
30150;DHT22;16962;48.646;9.026;2023-04-24T17:12:13;10.90;97.50
30150;DHT22;16962;48.646;9.026;2023-04-24T17:15:07;10.90;95.80
30150;DHT22;16962;48.646;9.026;2023-04-24T17:18:02;10.90;92.80
30150;DHT22;16962;48.646;9.026;2023-04-24T17:21:02;10.80;92.90
30150;DHT22;16962;48.646;9.026;2023-04-24T17:24:31;10.60;90.70
30150;DHT22;16962;48.646;9.026;2023-04-24T17:27:27;10.40;90.00
30150;DHT22;16962;48.646;9.026;2023-04-24T17:30:15;10.30;91.20
30150;DHT22;16962;48.646;9.026;2023-04-24T17:33:04;10.20;99.90
30150;DHT22;16962;48.646;9.026;2023-04-24T17:35:51;10.10;98.60
30150;DHT22;16962;48.646;9.026;2023-04-24T17:38:40;10.00;99.90
30150;DHT22;16962;48.646;9.026;2023-04-24T17:41:28;9.90;99.90
30150;DHT22;16962;48.646;9.026;2023-04-24T17:44:17;9.80;99.90
30150;DHT22;16962;48.646;9.026;2023-04-24T17:47:35;9.70;99.90
30150;DHT22;16962;48.646;9.026;2023-04-24T17:50:38;9.70;99.90
30150;DHT22;16962;48.646;9.026;2023-04-24T17:53:37;9.70;99.90
30150;DHT22;16962;48.646;9.026;2023-04-24T17:56:34;9.60;99.90
30150;DHT22;16962;48.646;9.026;2023-04-24T17:59:39;9.50;99.90
30150;DHT22;16962;48.646;9.026;2023-04-24T18:02:34;9.50;99.90
30150;DHT22;16962;48.646;9.026;2023-04-24T18:05:33;9.50;99.90
30150;DHT22;16962;48.646;9.026;2023-04-24T18:08:39;9.50;99.90
30150;DHT22;16962;48.646;9.026;2023-04-24T18:11:47;9.50;99.90
30150;DHT22;16962;48.646;9.026;2023-04-24T18:14:40;9.40;99.90
30150;DHT22;16962;48.646;9.026;2023-04-24T18:17:33;9.30;99.90
30150;DHT22;16962;48.646;9.026;2023-04-24T18:20:39;9.30;99.90
30150;DHT22;16962;48.646;9.026;2023-04-24T18:23:32;9.20;99.90
30150;DHT22;16962;48.646;9.026;2023-04-24T18:26:25;9.20;99.90
30150;DHT22;16962;48.646;9.026;2023-04-24T18:29:30;9.20;99.90
30150;DHT22;16962;48.646;9.026;2023-04-24T18:32:18;9.20;99.90
30150;DHT22;16962;48.646;9.026;2023-04-24T18:35:06;9.20;99.90
30150;DHT22;16962;48.646;9.026;2023-04-24T18:37:54;9.00;99.90
30150;DHT22;16962;48.646;9.026;2023-04-24T18:40:42;9.00;99.90
30150;DHT22;16962;48.646;9.026;2023-04-24T18:43:41;9.00;99.90
30150;DHT22;16962;48.646;9.026;2023-04-24T18:46:39;9.10;99.90
30150;DHT22;16962;48.646;9.026;2023-04-24T18:49:41;9.00;99.90
30150;DHT22;16962;48.646;9.026;2023-04-24T18:52:29;8.80;99.90
30150;DHT22;16962;48.646;9.026;2023-04-24T18:55:17;8.60;99.90
30150;DHT22;16962;48.646;9.026;2023-04-24T18:58:08;8.40;99.90
30150;DHT22;16962;48.646;9.026;2023-04-24T19:01:05;8.30;99.90
30150;DHT22;16962;48.646;9.026;2023-04-24T19:03:54;8.20;99.90
30150;DHT22;16962;48.646;9.026;2023-04-24T19:06:43;8.10;99.90
30150;DHT22;16962;48.646;9.026;2023-04-24T19:09:30;8.00;99.90
30150;DHT22;16962;48.646;9.026;2023-04-24T19:12:28;7.80;99.90
30150;DHT22;16962;48.646;9.026;2023-04-24T19:15:23;7.70;99.90
30150;DHT22;16962;48.646;9.026;2023-04-24T19:18:16;7.50;1.00
30150;DHT22;16962;48.646;9.026;2023-04-24T19:21:29;7.50;1.00
30150;DHT22;16962;48.646;9.026;2023-04-24T19:24:23;7.40;1.00
30150;DHT22;16962;48.646;9.026;2023-04-24T19:27:12;7.30;1.00
30150;DHT22;16962;48.646;9.026;2023-04-24T19:30:16;7.30;1.00
30150;DHT22;16962;48.646;9.026;2023-04-24T19:33:07;7.30;1.00
30150;DHT22;16962;48.646;9.026;2023-04-24T19:36:02;7.20;1.00
30150;DHT22;16962;48.646;9.026;2023-04-24T19:38:50;7.10;1.00
30150;DHT22;16962;48.646;9.026;2023-04-24T19:41:41;7.10;17.10
30150;DHT22;16962;48.646;9.026;2023-04-24T19:44:29;7.00;72.00
30150;DHT22;16962;48.646;9.026;2023-04-24T19:47:20;7.00;99.90
30150;DHT22;16962;48.646;9.026;2023-04-24T19:50:08;6.90;99.90
30150;DHT22;16962;48.646;9.026;2023-04-24T19:53:19;6.90;99.90
30150;DHT22;16962;48.646;9.026;2023-04-24T19:56:07;6.70;99.90
30150;DHT22;16962;48.646;9.026;2023-04-24T19:59:26;6.70;99.90
30150;DHT22;16962;48.646;9.026;2023-04-24T20:02:14;6.60;99.90
30150;DHT22;16962;48.646;9.026;2023-04-24T20:05:06;6.60;99.90
30150;DHT22;16962;48.646;9.026;2023-04-24T20:07:59;6.60;1.00
30150;DHT22;16962;48.646;9.026;2023-04-24T20:10:51;6.40;1.00
30150;DHT22;16962;48.646;9.026;2023-04-24T20:13:49;6.30;1.00
30150;DHT22;16962;48.646;9.026;2023-04-24T20:16:47;6.20;15.50
30150;DHT22;16962;48.646;9.026;2023-04-24T20:19:36;6.00;99.90
30150;DHT22;16962;48.646;9.026;2023-04-24T20:22:27;5.80;99.90
30150;DHT22;16962;48.646;9.026;2023-04-24T20:25:16;5.70;99.90
30150;DHT22;16962;48.646;9.026;2023-04-24T20:28:06;5.70;1.00
30150;DHT22;16962;48.646;9.026;2023-04-24T20:30:54;5.80;1.00
30150;DHT22;16962;48.646;9.026;2023-04-24T20:33:44;5.90;99.90
30150;DHT22;16962;48.646;9.026;2023-04-24T20:36:32;6.10;99.90
30150;DHT22;16962;48.646;9.026;2023-04-24T20:39:20;6.20;99.90
30150;DHT22;16962;48.646;9.026;2023-04-24T20:42:07;6.20;99.90
30150;DHT22;16962;48.646;9.026;2023-04-24T20:44:58;6.30;99.90
30150;DHT22;16962;48.646;9.026;2023-04-24T20:47:47;6.40;99.90
30150;DHT22;16962;48.646;9.026;2023-04-24T20:50:39;6.40;99.90
30150;DHT22;16962;48.646;9.026;2023-04-24T20:53:28;6.50;99.90
30150;DHT22;16962;48.646;9.026;2023-04-24T20:56:16;6.50;76.20
30150;DHT22;16962;48.646;9.026;2023-04-24T20:59:21;6.50;30.00
30150;DHT22;16962;48.646;9.026;2023-04-24T21:06:12;6.50;12.30
30150;DHT22;16962;48.646;9.026;2023-04-24T21:09:07;6.50;49.70
30150;DHT22;16962;48.646;9.026;2023-04-24T21:11:55;6.50;84.70
30150;DHT22;16962;48.646;9.026;2023-04-24T21:50:23;7.10;99.90
30150;DHT22;16962;48.646;9.026;2023-04-24T22:29:22;7.10;99.90
30150;DHT22;16962;48.646;9.026;2023-04-24T22:32:53;7.10;99.90
30150;DHT22;16962;48.646;9.026;2023-04-24T22:36:39;7.00;99.90
30150;DHT22;16962;48.646;9.026;2023-04-24T22:39:25;7.00;99.90
30150;DHT22;16962;48.646;9.026;2023-04-24T23:00:25;7.10;99.90
30150;DHT22;16962;48.646;9.026;2023-04-24T23:03:26;7.20;99.90
30150;DHT22;16962;48.646;9.026;2023-04-24T23:06:14;7.10;99.90
30150;DHT22;16962;48.646;9.026;2023-04-24T23:09:56;7.10;99.90
30150;DHT22;16962;48.646;9.026;2023-04-24T23:18:12;7.00;1.00
30150;DHT22;16962;48.646;9.026;2023-04-24T23:47:03;6.60;99.90
30150;DHT22;16962;48.646;9.026;2023-04-24T23:54:17;6.70;99.90
